Time;durP1;ratioP1;P1;durP2;ratioP2;P2;SDS_P1;SDS_P2;PMS_P1;PMS_P2;Temp;Humidity;BMP_temperature;BMP_pressure;BME280_temperature;BME280_humidity;BME280_pressure;Samples;Min_cycle;Max_cycle;Signal;HPM_P1;HPM_P2
2022/10/15 00:00:00;;;;;;;9.10;3.17;;;;;;;11.55;76.26;99061.53;5019856;28;20141;-43
2022/10/15 00:02:26;;;;;;;10.25;3.03;;;;;;;11.52;75.66;99060.78;5020517;28;20064;-43
2022/10/15 00:04:53;;;;;;;12.85;2.95;;;;;;;11.51;76.11;99059.03;5004009;28;20060;-42
2022/10/15 00:07:20;;;;;;;13.13;3.38;;;;;;;11.49;75.83;99061.69;5005879;28;20540;-43
2022/10/15 00:09:47;;;;;;;9.10;2.70;;;;;;;11.46;75.92;99056.56;4999299;28;20498;-44
2022/10/15 00:12:13;;;;;;;9.30;2.80;;;;;;;11.44;75.52;99048.81;5006329;28;20456;-43
2022/10/15 00:14:40;;;;;;;11.32;2.70;;;;;;;11.45;76.19;99049.66;5009829;28;20528;-44
2022/10/15 00:17:07;;;;;;;7.82;3.20;;;;;;;11.44;75.45;99046.22;5008507;28;20052;-41
2022/10/15 00:19:33;;;;;;;7.55;2.55;;;;;;;11.46;76.52;99043.59;5005251;28;20080;-43
2022/10/15 00:22:00;;;;;;;7.57;2.70;;;;;;;11.49;76.01;99040.09;5005031;28;20046;-42
2022/10/15 00:24:32;;;;;;;8.07;2.60;;;;;;;11.50;75.41;99027.09;5002780;28;20068;-41
2022/10/15 00:26:58;;;;;;;8.15;2.00;;;;;;;11.50;75.86;99032.28;5008672;28;20149;-42
2022/10/15 00:29:25;;;;;;;9.38;2.42;;;;;;;11.49;76.26;99035.75;5007788;28;20513;-42
2022/10/15 00:31:52;;;;;;;10.85;2.78;;;;;;;11.46;76.87;99025.47;5005535;28;20128;-44
2022/10/15 00:34:18;;;;;;;10.13;2.80;;;;;;;11.45;76.90;99018.53;5007859;28;20136;-42
2022/10/15 00:36:45;;;;;;;12.23;2.83;;;;;;;11.39;77.76;99008.34;5005395;28;20070;-43
2022/10/15 00:39:11;;;;;;;8.40;3.00;;;;;;;11.42;76.49;99016.03;5004142;28;20129;-44
2022/10/15 00:41:41;;;;;;;11.48;3.78;;;;;;;11.42;76.09;99010.88;5003944;28;20509;-42
2022/10/15 00:49:39;;;;;;;14.55;5.22;;;;;;;11.41;77.33;99001.34;5104758;27;20140;-40
2022/10/15 00:52:11;;;;;;;14.73;4.68;;;;;;;11.41;77.09;98996.16;5064020;28;20055;-41
2022/10/15 00:54:42;;;;;;;12.95;5.35;;;;;;;11.43;77.11;98994.41;5059781;28;20126;-43
2022/10/15 00:57:10;;;;;;;15.95;5.05;;;;;;;11.44;76.75;98985.72;5058530;28;20083;-44
2022/10/15 00:59:42;;;;;;;12.05;4.47;;;;;;;11.45;76.38;98982.25;5056932;28;20128;-41
2022/10/15 01:02:09;;;;;;;12.18;4.03;;;;;;;11.46;76.42;98972.72;5056779;28;20075;-43
2022/10/15 01:04:37;;;;;;;14.15;3.92;;;;;;;11.47;76.10;98969.25;5056218;28;20048;-45
2022/10/15 01:07:03;;;;;;;14.40;4.55;;;;;;;11.47;77.36;98964.94;5058617;28;20556;-42
2022/10/15 01:09:30;;;;;;;15.63;4.45;;;;;;;11.44;77.00;98965.00;5059596;28;20052;-44
2022/10/15 01:11:57;;;;;;;13.63;5.13;;;;;;;11.46;76.93;98963.22;5055972;28;20135;-44
2022/10/15 01:25:43;;;;;;;10.52;3.92;;;;;;;11.45;76.64;98940.75;5076514;27;20131;-44
2022/10/15 01:30:49;;;;;;;11.98;4.05;;;;;;;11.45;76.82;98938.16;5082658;27;20119;-41
2022/10/15 01:33:41;;;;;;;11.65;3.58;;;;;;;11.40;76.97;98932.25;5059202;28;20044;-48
2022/10/15 01:36:18;;;;;;;12.55;4.43;;;;;;;11.43;77.18;98921.81;5052457;28;20076;-43
2022/10/15 01:38:54;;;;;;;9.60;3.72;;;;;;;11.41;76.54;98914.06;5039128;28;20503;-46
2022/10/15 01:46:49;;;;;;;13.07;4.47;;;;;;;11.37;76.56;98907.25;5087159;27;20124;-41
2022/10/15 01:49:20;;;;;;;14.95;5.53;;;;;;;11.39;76.86;98899.44;5056381;28;20049;-43
2022/10/15 01:51:49;;;;;;;16.42;5.97;;;;;;;11.39;77.36;98896.84;5057255;28;20606;-40
2022/10/15 01:54:18;;;;;;;10.80;3.75;;;;;;;11.39;76.55;98889.06;5056623;28;20045;-41
2022/10/15 01:56:48;;;;;;;11.98;4.15;;;;;;;11.38;77.43;98877.00;5056252;28;20068;-41
2022/10/15 01:59:20;;;;;;;11.45;4.20;;;;;;;11.39;77.70;98870.94;5053119;28;20048;-41
2022/10/15 02:01:47;;;;;;;12.15;3.95;;;;;;;11.41;77.02;98869.13;5057254;28;20053;-44
2022/10/15 02:04:23;;;;;;;13.15;4.45;;;;;;;11.41;77.63;98866.53;5051429;28;20064;-43
2022/10/15 02:12:19;;;;;;;20.42;6.78;;;;;;;11.77;77.08;98869.09;5079162;27;20647;-42
2022/10/15 02:14:58;;;;;;;14.18;5.18;;;;;;;11.56;77.87;98862.72;5033590;28;20492;-41
2022/10/15 02:18:05;;;;;;;11.95;4.72;;;;;;;11.50;77.34;98855.94;5032152;28;20045;-43
2022/10/15 02:20:44;;;;;;;13.48;4.78;;;;;;;11.52;77.12;98848.97;5034683;28;20052;-42
2022/10/15 02:23:18;;;;;;;12.93;3.60;;;;;;;11.54;77.67;98847.19;5036838;28;20141;-43
2022/10/15 02:25:47;;;;;;;12.02;4.00;;;;;;;11.53;77.32;98840.31;5033260;28;20053;-43
2022/10/15 02:28:16;;;;;;;10.60;3.45;;;;;;;11.48;77.45;98841.31;5034123;28;20135;-42
2022/10/15 02:30:47;;;;;;;10.75;3.78;;;;;;;11.45;76.31;98842.22;5036341;28;20047;-42
2022/10/15 02:33:16;;;;;;;8.10;3.30;;;;;;;11.40;77.32;98828.56;5034361;28;20065;-43
2022/10/15 02:35:43;;;;;;;8.98;3.95;;;;;;;11.36;76.56;98822.59;5031527;28;20069;-43
2022/10/15 02:38:14;;;;;;;10.05;3.33;;;;;;;11.31;77.30;98820.13;5038342;28;20128;-41
2022/10/15 02:40:42;;;;;;;12.60;3.63;;;;;;;11.28;77.28;98804.63;5068104;28;20069;-43
2022/10/15 02:43:12;;;;;;;9.82;3.33;;;;;;;11.25;76.72;98809.91;5036011;28;20057;-42
2022/10/15 02:45:39;;;;;;;;;;;;;;;11.04;77.78;98806.09;5043500;28;20045;-44
2022/10/15 02:48:06;;;;;;;9.27;2.92;;;;;;;11.14;77.19;98796.38;5042321;28;19925;-43
2022/10/15 02:50:33;;;;;;;10.68;3.50;;;;;;;11.15;77.91;98792.91;5030704;28;20049;-43
2022/10/15 02:52:59;;;;;;;7.03;3.13;;;;;;;11.09;77.50;98787.88;5039485;28;20097;-45
2022/10/15 02:55:26;;;;;;;8.93;3.17;;;;;;;11.15;77.06;98785.13;5033814;28;20140;-43
2022/10/15 02:57:53;;;;;;;6.35;2.95;;;;;;;11.16;77.87;98784.22;5034077;28;20594;-43
2022/10/15 03:00:19;;;;;;;7.40;3.30;;;;;;;11.17;77.15;98785.91;5052614;28;20076;-44
2022/10/15 03:02:46;;;;;;;7.65;3.33;;;;;;;11.20;77.08;98783.25;5056449;28;20053;-41
2022/10/15 03:05:13;;;;;;;9.68;3.85;;;;;;;11.18;77.50;98783.28;5063920;28;20098;-43
2022/10/15 03:07:39;;;;;;;9.85;3.22;;;;;;;11.19;77.41;98781.56;5036155;28;20056;-45
2022/10/15 03:10:06;;;;;;;11.40;3.85;;;;;;;11.16;77.42;98763.50;5034531;28;20137;-42
2022/10/15 03:12:34;;;;;;;8.32;3.53;;;;;;;11.11;77.88;98761.00;5048726;28;20750;-44
2022/10/15 03:15:01;;;;;;;9.65;3.40;;;;;;;11.12;77.61;98759.28;5057973;28;20049;-41
2022/10/15 03:17:27;;;;;;;11.93;3.78;;;;;;;11.13;78.10;98753.22;5036546;28;20053;-43
2022/10/15 03:19:54;;;;;;;11.63;3.60;;;;;;;11.13;78.34;98748.03;5036203;28;20167;-44
2022/10/15 03:22:20;;;;;;;10.13;3.47;;;;;;;11.11;78.92;98744.63;5027587;28;20124;-41
2022/10/15 03:24:47;;;;;;;13.27;4.18;;;;;;;11.11;77.80;98739.47;5019934;28;20493;-43
2022/10/15 03:27:14;;;;;;;15.57;5.05;;;;;;;11.13;78.99;98743.69;5035276;28;20103;-43
2022/10/15 03:29:40;;;;;;;12.25;4.70;;;;;;;11.13;79.08;98743.69;5042586;28;20065;-41
2022/10/15 03:32:07;;;;;;;12.98;4.88;;;;;;;11.15;78.59;98736.72;5015843;28;20428;-44
2022/10/15 03:34:33;;;;;;;11.75;4.70;;;;;;;11.15;79.06;98741.06;5050266;28;20078;-41
2022/10/15 03:37:00;;;;;;;10.05;4.65;;;;;;;11.18;78.79;98733.22;5043654;28;20592;-43
2022/10/15 03:39:26;;;;;;;13.57;4.45;;;;;;;11.20;78.64;98723.66;5033014;28;20053;-44
2022/10/15 03:41:53;;;;;;;10.57;3.78;;;;;;;11.22;78.01;98719.28;5024464;28;20127;-45
2022/10/15 03:44:19;;;;;;;9.98;3.75;;;;;;;11.17;78.28;98710.78;5049025;28;20049;-44
2022/10/15 03:46:46;;;;;;;9.85;3.25;;;;;;;11.23;79.08;98713.22;5020852;28;20128;-42
2022/10/15 03:49:13;;;;;;;8.82;3.22;;;;;;;11.27;78.21;98713.97;5021688;28;20128;-41
2022/10/15 03:51:39;;;;;;;10.40;3.53;;;;;;;11.25;78.80;98715.75;5021391;28;20052;-43
2022/10/15 03:54:06;;;;;;;7.63;3.13;;;;;;;11.27;78.09;98712.22;5033393;28;20064;-44
2022/10/15 03:56:32;;;;;;;8.20;3.40;;;;;;;11.28;77.94;98698.38;5059469;28;20132;-42
2022/10/15 03:58:59;;;;;;;8.30;4.03;;;;;;;11.27;79.68;98696.69;5014029;28;20067;-47
2022/10/15 04:01:25;;;;;;;7.85;3.28;;;;;;;11.29;78.91;98694.88;5022036;28;20046;-43
2022/10/15 04:03:52;;;;;;;10.35;3.10;;;;;;;11.29;79.02;98681.91;5034727;28;20055;-44
2022/10/15 04:06:20;;;;;;;9.73;3.63;;;;;;;11.27;78.64;98678.53;5050415;28;20083;-41
2022/10/15 04:08:46;;;;;;;7.40;3.45;;;;;;;11.26;78.49;98669.06;5030308;28;20098;-44
2022/10/15 04:11:13;;;;;;;8.95;3.55;;;;;;;11.22;79.22;98674.38;5053279;28;20644;-44
2022/10/15 04:13:39;;;;;;;8.75;3.53;;;;;;;11.24;79.77;98672.56;5042849;28;20053;-45
2022/10/15 04:16:06;;;;;;;11.75;3.90;;;;;;;11.23;79.30;98670.88;5025815;28;20049;-45
2022/10/15 04:18:33;;;;;;;8.60;3.85;;;;;;;11.24;78.89;98663.06;5037426;28;20064;-45
2022/10/15 04:21:01;;;;;;;10.15;3.80;;;;;;;11.27;79.81;98662.97;5041323;28;20051;-41
2022/10/15 04:23:27;;;;;;;9.63;3.83;;;;;;;11.29;80.39;98666.38;5038682;28;20551;-43
2022/10/15 04:25:59;;;;;;;12.10;3.63;;;;;;;11.26;80.51;98665.63;5042989;28;20539;-43
2022/10/15 04:28:26;;;;;;;9.75;3.65;;;;;;;11.29;79.17;98670.72;5041662;28;20459;-43
2022/10/15 04:30:57;;;;;;;11.57;5.15;;;;;;;11.32;79.73;98658.50;5043173;28;20048;-43
2022/10/15 04:33:24;;;;;;;12.48;4.10;;;;;;;11.37;78.81;98658.38;5025759;28;20060;-42
2022/10/15 04:36:00;;;;;;;8.88;3.78;;;;;;;11.38;78.98;98659.25;5040558;28;20053;-43
2022/10/15 04:38:27;;;;;;;12.80;4.28;;;;;;;11.42;79.14;98645.31;5038506;28;20072;-43
2022/10/15 04:41:00;;;;;;;10.25;3.92;;;;;;;11.46;78.94;98649.50;5043294;28;20087;-43
2022/10/15 04:43:27;;;;;;;8.35;2.92;;;;;;;11.49;80.03;98645.97;5042226;28;20128;-45
2022/10/15 04:45:56;;;;;;;8.38;3.63;;;;;;;11.51;79.72;98652.81;5038689;28;20049;-45
2022/10/15 04:48:23;;;;;;;8.18;3.45;;;;;;;11.55;78.92;98636.25;5039857;28;20063;-43
2022/10/15 04:50:49;;;;;;;8.73;3.03;;;;;;;11.59;79.41;98654.31;5042549;28;20072;-42
2022/10/15 04:53:16;;;;;;;9.20;3.95;;;;;;;11.61;79.18;98644.75;5036911;28;20131;-41
2022/10/15 04:55:43;;;;;;;7.45;3.38;;;;;;;11.66;78.94;98640.28;5053595;28;20131;-44
2022/10/15 04:58:09;;;;;;;7.68;3.10;;;;;;;11.67;80.03;98640.25;5039662;28;20140;-45
2022/10/15 05:00:37;;;;;;;9.60;3.17;;;;;;;11.72;79.64;98642.69;5040779;28;20068;-42
2022/10/15 05:03:05;;;;;;;12.52;3.25;;;;;;;11.73;78.97;98639.22;5039858;28;20514;-44
2022/10/15 05:05:31;;;;;;;9.82;3.63;;;;;;;11.76;79.26;98646.03;5044034;28;20132;-43
2022/10/15 05:08:00;;;;;;;10.25;3.55;;;;;;;11.77;80.30;98630.44;5037124;28;20053;-43
2022/10/15 05:10:27;;;;;;;9.43;3.42;;;;;;;11.79;79.68;98633.81;5041711;28;20072;-42
2022/10/15 05:12:53;;;;;;;9.35;3.08;;;;;;;11.81;79.83;98637.22;5040495;28;20049;-43
2022/10/15 05:15:24;;;;;;;7.60;3.28;;;;;;;11.85;80.23;98632.78;5035448;28;20056;-46
2022/10/15 05:17:51;;;;;;;7.13;2.80;;;;;;;11.86;79.24;98613.75;5038966;28;20067;-44
2022/10/15 05:20:17;;;;;;;5.78;2.95;;;;;;;11.86;80.10;98623.28;5041047;28;20116;-43
2022/10/15 05:22:44;;;;;;;8.13;3.55;;;;;;;11.88;80.25;98624.06;5040787;28;20072;-41
2022/10/15 05:25:11;;;;;;;7.35;3.05;;;;;;;11.88;80.05;98626.66;5041556;28;20053;-41
2022/10/15 05:27:37;;;;;;;8.25;3.65;;;;;;;11.90;79.81;98640.44;5041522;28;20551;-43
2022/10/15 05:30:04;;;;;;;6.07;3.03;;;;;;;11.91;79.90;98642.13;5042002;28;20051;-44
2022/10/15 05:32:31;;;;;;;6.00;2.70;;;;;;;11.92;80.44;98623.91;5036823;28;20128;-42
2022/10/15 05:34:58;;;;;;;5.57;2.60;;;;;;;11.94;80.42;98614.34;5039141;28;20053;-41
2022/10/15 05:37:24;;;;;;;5.00;2.38;;;;;;;11.96;80.53;98609.94;5036984;28;20052;-44
2022/10/15 05:39:51;;;;;;;5.93;2.45;;;;;;;11.96;80.33;98609.13;5042689;28;20041;-44
2022/10/15 05:42:18;;;;;;;5.07;2.10;;;;;;;11.96;79.25;98609.13;5039129;28;20170;-44
2022/10/15 05:44:44;;;;;;;5.90;2.10;;;;;;;11.98;80.22;98612.50;5037095;28;20445;-44
2022/10/15 05:47:11;;;;;;;3.95;1.77;;;;;;;11.99;80.21;98598.63;5039406;28;20728;-44
2022/10/15 05:49:38;;;;;;;3.45;1.58;;;;;;;11.97;79.17;98597.84;5041342;28;20061;-41
2022/10/15 05:52:04;;;;;;;3.72;1.55;;;;;;;11.96;78.90;98603.94;5041576;28;20075;-46
2022/10/15 05:54:31;;;;;;;3.75;1.30;;;;;;;11.96;79.88;98598.75;5042135;28;20143;-43
2022/10/15 05:56:57;;;;;;;3.97;1.42;;;;;;;11.94;78.59;98603.13;5042281;28;20057;-44
2022/10/15 05:59:24;;;;;;;2.83;1.38;;;;;;;11.93;78.62;98604.03;5042364;28;20057;-45
2022/10/15 06:01:50;;;;;;;2.40;1.70;;;;;;;11.92;78.88;98610.13;5038156;28;20415;-44
2022/10/15 06:04:17;;;;;;;2.65;1.20;;;;;;;11.91;78.83;98606.66;5040243;28;20110;-47
2022/10/15 06:06:44;;;;;;;2.50;1.10;;;;;;;11.90;78.75;98609.31;5039370;28;20091;-41
2022/10/15 06:09:10;;;;;;;3.45;0.75;;;;;;;11.90;79.13;98604.13;5041622;28;20049;-44
2022/10/15 06:11:37;;;;;;;1.73;0.93;;;;;;;11.86;79.42;98602.50;5039408;28;20114;-45
2022/10/15 06:14:03;;;;;;;3.60;0.93;;;;;;;11.86;77.85;98607.69;5035733;28;20137;-43
2022/10/15 06:16:30;;;;;;;1.17;0.70;;;;;;;11.81;78.43;98616.47;5036755;28;20072;-41
2022/10/15 06:18:56;;;;;;;2.45;0.77;;;;;;;11.76;77.98;98626.13;5038186;28;20051;-42
2022/10/15 06:21:23;;;;;;;1.05;0.82;;;;;;;11.78;77.78;98621.75;5039721;28;20610;-43
2022/10/15 06:23:50;;;;;;;0.85;0.68;;;;;;;11.76;77.31;98623.53;5034991;28;20060;-42
2022/10/15 06:26:17;;;;;;;1.65;0.55;;;;;;;11.73;78.61;98618.47;5038513;28;20064;-42
2022/10/15 06:28:43;;;;;;;3.05;1.25;;;;;;;11.70;78.08;98618.56;5038613;28;20136;-45
2022/10/15 06:31:11;;;;;;;0.98;0.70;;;;;;;11.66;77.49;98632.50;5037253;28;20136;-43
2022/10/15 06:33:37;;;;;;;0.73;0.60;;;;;;;11.62;77.83;98625.72;5038134;28;20128;-41
2022/10/15 06:36:07;;;;;;;1.70;1.08;;;;;;;11.60;77.51;98646.50;5040183;28;20050;-46
2022/10/15 06:38:34;;;;;;;;;;;;;;;11.42;77.72;98645.31;5035449;28;20053;-45
2022/10/15 06:41:06;;;;;;;2.63;1.35;;;;;;;11.50;78.26;98635.56;5042906;28;19995;-42
2022/10/15 06:43:33;;;;;;;4.55;2.55;;;;;;;11.49;77.19;98644.25;5037233;28;20452;-42
2022/10/15 06:46:02;;;;;;;1.60;1.13;;;;;;;11.47;78.49;98643.41;5044153;28;20522;-43
2022/10/15 06:48:29;;;;;;;1.10;0.47;;;;;;;11.46;78.61;98646.06;5040500;28;20103;-43
2022/10/15 06:50:58;;;;;;;2.25;0.57;;;;;;;11.44;78.17;98643.50;5042036;28;20072;-43
2022/10/15 06:53:25;;;;;;;0.98;0.63;;;;;;;11.42;78.09;98640.13;5041340;28;20136;-43
2022/10/15 06:55:56;;;;;;;1.63;0.80;;;;;;;11.41;77.50;98643.59;5042463;28;20111;-43
2022/10/15 06:58:23;;;;;;;2.97;0.60;;;;;;;11.39;78.10;98641.03;5042251;28;20099;-44
2022/10/15 07:00:50;;;;;;;1.48;0.68;;;;;;;11.39;77.91;98640.19;5039907;28;20094;-42
2022/10/15 07:03:16;;;;;;;1.33;0.63;;;;;;;11.41;78.47;98646.19;5040223;28;20056;-42
2022/10/15 07:05:43;;;;;;;1.50;0.43;;;;;;;11.43;77.70;98644.41;5037489;28;20135;-43
2022/10/15 07:08:10;;;;;;;0.43;0.30;;;;;;;11.47;77.54;98653.78;5036918;28;20143;-42
2022/10/15 07:10:44;;;;;;;0.30;0.20;;;;;;;11.49;77.49;98657.19;5039988;28;20045;-42
2022/10/15 07:13:11;;;;;;;1.00;0.50;;;;;;;11.52;76.90;98651.06;5035647;28;20136;-43
2022/10/15 07:15:37;;;;;;;0.55;0.40;;;;;;;11.52;77.30;98651.91;5040406;28;20064;-44
2022/10/15 07:18:04;;;;;;;1.02;0.30;;;;;;;11.53;78.17;98648.44;5033780;28;24001;-45
2022/10/15 07:20:31;;;;;;;0.75;0.57;;;;;;;11.56;77.19;98653.50;5043067;28;20055;-44
2022/10/15 07:23:00;;;;;;;1.63;0.55;;;;;;;11.59;77.81;98652.59;5036732;28;20127;-44
2022/10/15 07:25:27;;;;;;;1.27;0.38;;;;;;;11.62;77.59;98649.88;5042607;28;20126;-44
2022/10/15 07:27:55;;;;;;;1.90;0.70;;;;;;;11.66;77.28;98648.06;5024726;28;20099;-42
2022/10/15 07:30:26;;;;;;;4.35;1.00;;;;;;;11.70;78.70;98649.69;5041179;28;20435;-45
2022/10/15 07:32:55;;;;;;;2.55;1.23;;;;;;;11.76;77.22;98649.47;5043751;28;20064;-42
2022/10/15 07:35:22;;;;;;;2.60;0.65;;;;;;;11.88;77.86;98660.38;5043911;28;20652;-45
2022/10/15 07:37:49;;;;;;;1.15;0.60;;;;;;;12.06;77.46;98646.88;5062995;28;20536;-48
2022/10/15 07:40:17;;;;;;;4.75;1.38;;;;;;;12.27;78.19;98644.50;5040349;28;20052;-44
2022/10/15 07:42:43;;;;;;;1.30;0.63;;;;;;;12.42;78.04;98658.72;5045862;28;20040;-43
2022/10/15 07:45:10;;;;;;;2.50;0.93;;;;;;;12.53;78.44;98653.16;5046351;28;20049;-44
2022/10/15 07:47:39;;;;;;;3.58;0.75;;;;;;;12.59;77.79;98639.13;5042224;28;20140;-44
2022/10/15 07:50:05;;;;;;;4.18;0.80;;;;;;;12.62;76.70;98653.75;5043037;28;20072;-44
2022/10/15 07:52:32;;;;;;;1.13;0.55;;;;;;;12.66;76.53;98647.59;5044454;28;20041;-45
2022/10/15 07:54:59;;;;;;;5.65;0.75;;;;;;;12.72;77.76;98652.56;5038410;28;20140;-47
2022/10/15 07:57:25;;;;;;;3.42;0.93;;;;;;;12.87;77.50;98655.53;5045536;28;20167;-43
2022/10/15 07:59:52;;;;;;;1.48;0.63;;;;;;;13.04;77.33;98645.38;5040141;28;20045;-46
2022/10/15 08:02:19;;;;;;;1.80;0.65;;;;;;;13.28;76.25;98652.38;5045133;28;20132;-42
2022/10/15 08:04:46;;;;;;;0.65;0.40;;;;;;;13.46;75.65;98641.28;5041636;28;20144;-43
2022/10/15 08:07:13;;;;;;;1.35;0.65;;;;;;;13.59;75.73;98652.13;5041677;28;20833;-44
2022/10/15 08:09:39;;;;;;;1.40;0.57;;;;;;;13.62;75.16;98649.38;5040921;28;20151;-43
2022/10/15 08:12:06;;;;;;;2.35;0.60;;;;;;;13.68;75.54;98650.06;5044525;28;20067;-47
2022/10/15 08:14:34;;;;;;;0.90;0.63;;;;;;;13.76;75.06;98648.03;5046483;28;20071;-44
2022/10/15 08:17:02;;;;;;;3.00;0.95;;;;;;;13.95;74.98;98642.94;5042007;28;20171;-46
2022/10/15 08:19:28;;;;;;;4.03;0.68;;;;;;;13.98;74.45;98648.03;5037556;28;20052;-43
2022/10/15 08:21:56;;;;;;;1.33;0.82;;;;;;;13.93;73.75;98638.69;5044770;28;20139;-47
2022/10/15 08:24:23;;;;;;;2.42;0.55;;;;;;;13.82;73.44;98652.97;5041876;28;20132;-46
2022/10/15 08:26:50;;;;;;;2.65;0.70;;;;;;;13.74;73.62;98655.03;5038031;28;20048;-44
2022/10/15 08:29:17;;;;;;;4.05;1.02;;;;;;;13.79;73.87;98652.25;5045049;28;20128;-44
2022/10/15 08:31:43;;;;;;;4.13;1.10;;;;;;;13.94;74.03;98654.25;5044336;28;20037;-42
2022/10/15 08:34:10;;;;;;;3.15;0.80;;;;;;;14.21;73.53;98643.66;5038158;28;20092;-45
2022/10/15 08:36:36;;;;;;;0.93;0.45;;;;;;;14.58;72.53;98645.66;5038323;28;20081;-43
2022/10/15 08:39:06;;;;;;;2.55;0.63;;;;;;;14.72;71.81;98643.31;5043146;28;20129;-43
2022/10/15 08:47:05;;;;;;;1.02;0.70;;;;;;;14.40;71.38;98646.34;5076990;27;20127;-46
2022/10/15 08:49:54;;;;;;;3.33;0.47;;;;;;;14.33;71.30;98652.75;5040294;28;20171;-45
2022/10/15 08:55:19;;;;;;;2.10;1.92;;;;;;;15.29;70.64;98668.72;5092915;27;20382;-43
2022/10/15 09:00:24;;;;;;;1.77;0.28;;;;;;;15.18;69.10;98677.91;5072380;27;20134;-43
2022/10/15 09:03:24;;;;;;;2.50;0.55;;;;;;;15.54;70.47;98682.44;5032839;28;20061;-45
2022/10/15 09:14:18;;;;;;;2.03;0.80;;;;;;;19.93;62.50;98699.28;5083867;27;20596;-45
2022/10/15 09:16:48;;;;;;;1.15;0.73;;;;;;;20.88;60.15;98698.47;5051036;28;20048;-46
2022/10/15 09:19:19;;;;;;;0.70;0.52;;;;;;;21.58;58.14;98704.22;5054160;28;20041;-47
2022/10/15 09:21:47;;;;;;;1.58;0.60;;;;;;;22.05;56.40;98700.97;5070648;28;20040;-47
2022/10/15 09:24:24;;;;;;;2.95;1.13;;;;;;;22.55;55.04;98700.00;5053957;28;20072;-44
2022/10/15 09:34:48;;;;;;;3.58;1.27;;;;;;;22.35;52.08;98714.66;5083989;27;20370;-45
2022/10/15 09:40:02;;;;;;;2.17;1.55;;;;;;;20.73;53.71;98717.88;5049120;27;20278;-47
2022/10/15 09:42:35;;;;;;;2.97;1.67;;;;;;;20.07;54.55;98727.31;5038313;28;20049;-44
2022/10/15 09:45:08;;;;;;;3.80;1.33;;;;;;;19.84;55.35;98732.22;5032440;28;20120;-45
2022/10/15 09:47:36;;;;;;;1.83;1.70;;;;;;;19.58;56.06;98725.94;5038512;28;20049;-43
2022/10/15 09:50:06;;;;;;;2.45;1.55;;;;;;;19.38;57.00;98725.38;5041739;28;20047;-46
2022/10/15 09:58:19;;;;;;;2.25;0.35;;;;;;;19.92;56.87;98731.72;5078407;27;20123;-49
2022/10/15 10:03:31;;;;;;;2.25;0.50;;;;;;;20.70;55.60;98734.69;5098596;27;20806;-45
2022/10/15 10:06:02;;;;;;;3.13;1.15;;;;;;;21.37;55.16;98732.03;5063519;28;20062;-46
2022/10/15 10:08:46;;;;;;;2.30;0.35;;;;;;;21.85;53.43;98730.56;5063707;28;20403;-45
2022/10/15 10:11:14;;;;;;;3.10;0.63;;;;;;;21.65;53.32;98724.88;5063510;28;20107;-45
2022/10/15 10:16:20;;;;;;;4.25;1.55;;;;;;;21.72;53.09;98723.50;5099167;27;20150;-44
2022/10/15 10:21:41;;;;;;;5.43;2.67;;;;;;;22.01;51.62;98736.41;5094342;27;20415;-43
2022/10/15 10:24:30;;;;;;;4.30;2.72;;;;;;;22.50;50.93;98740.88;5065481;28;20045;-42
2022/10/15 10:26:59;;;;;;;2.97;1.77;;;;;;;22.70;50.03;98731.53;5081864;28;20044;-44
2022/10/15 10:29:28;;;;;;;2.05;1.23;;;;;;;22.73;48.65;98731.28;5080021;28;20055;-43
2022/10/15 10:32:16;;;;;;;3.38;2.03;;;;;;;22.96;48.37;98724.28;5082188;28;20048;-47
2022/10/15 10:34:43;;;;;;;2.97;1.75;;;;;;;23.11;48.15;98727.53;5080902;28;20056;-45
2022/10/15 10:37:18;;;;;;;2.20;1.52;;;;;;;23.05;47.28;98729.81;5081045;28;20121;-44
2022/10/15 10:39:52;;;;;;;3.15;1.92;;;;;;;22.79;46.98;98741.38;5079173;28;20131;-47
2022/10/15 10:44:54;;;;;;;3.92;1.95;;;;;;;22.05;45.78;98748.41;5100802;27;20387;-44
2022/10/15 10:47:24;;;;;;;7.40;1.65;;;;;;;21.64;46.55;98749.53;5058255;28;20041;-46
2022/10/15 10:49:54;;;;;;;3.60;1.02;;;;;;;21.33;47.80;98749.88;5063401;28;20059;-46
2022/10/15 10:57:59;;;;;;;3.92;0.77;;;;;;;20.55;49.42;98763.72;5089993;27;20371;-48
2022/10/15 11:03:21;;;;;;;2.83;1.63;;;;;;;20.17;49.84;98748.59;5070345;27;20144;-43
2022/10/15 11:05:53;;;;;;;4.07;2.58;;;;;;;19.96;50.01;98751.59;5003497;28;20137;-45
2022/10/15 11:08:35;;;;;;;3.92;1.67;;;;;;;19.72;50.16;98756.63;4987349;28;20057;-46
2022/10/15 11:11:18;;;;;;;3.60;1.58;;;;;;;19.52;50.65;98749.00;4991325;28;20133;-45
2022/10/15 11:16:38;;;;;;;3.65;0.85;;;;;;;19.34;51.62;98750.13;5064864;27;20949;-44
2022/10/15 11:24:42;;;;;;;3.50;0.88;;;;;;;18.87;51.56;98750.19;5111441;27;20882;-46
2022/10/15 11:27:50;;;;;;;2.85;0.65;;;;;;;18.67;51.82;98757.44;5054623;28;20129;-45
2022/10/15 11:33:18;;;;;;;4.28;0.90;;;;;;;18.52;50.70;98748.66;5082535;27;20135;-46
2022/10/15 11:35:53;;;;;;;1.65;0.30;;;;;;;18.39;50.73;98748.50;5038968;28;20052;-49
2022/10/15 11:47:07;;;;;;;3.53;0.75;;;;;;;17.94;51.15;98753.56;5061182;27;20511;-43
2022/10/15 11:52:56;;;;;;;2.95;0.75;;;;;;;17.67;51.93;98757.56;5080002;27;20120;-42
2022/10/15 12:01:05;;;;;;;3.38;0.52;;;;;;;17.50;52.86;98741.91;5068590;27;20124;-46
2022/10/15 12:03:43;;;;;;;1.35;0.22;;;;;;;17.50;53.27;98739.28;5025709;28;20141;-44
2022/10/15 12:06:15;;;;;;;2.92;0.55;;;;;;;17.56;53.71;98744.22;5004844;28;20042;-43
2022/10/15 12:08:43;;;;;;;0.93;0.28;;;;;;;17.66;53.40;98740.16;4992367;28;20074;-46
2022/10/15 12:13:56;;;;;;;2.85;0.20;;;;;;;17.71;53.69;98738.16;5034110;27;20129;-45
2022/10/15 12:27:23;;;;;;;3.80;0.95;;;;;;;17.82;51.36;98736.72;5086130;27;20402;-45
2022/10/15 12:30:10;;;;;;;4.03;0.60;;;;;;;17.62;52.00;98738.63;5020374;28;20128;-46
2022/10/15 12:32:45;;;;;;;1.52;0.88;;;;;;;17.60;52.80;98727.41;5006677;28;20549;-44
2022/10/15 12:37:50;;;;;;;2.63;0.60;;;;;;;17.60;53.03;98730.03;5107693;27;20125;-43
2022/10/15 12:42:55;;;;;;;1.88;0.85;;;;;;;17.53;53.14;98723.44;5087504;27;20119;-44
2022/10/15 12:45:28;;;;;;;1.50;0.30;;;;;;;17.53;52.84;98723.44;5057951;28;20068;-44
2022/10/15 12:50:49;;;;;;;3.42;1.67;;;;;;;17.41;52.19;98715.28;5091008;27;20625;-44
2022/10/15 12:53:31;;;;;;;3.75;2.25;;;;;;;17.27;52.76;98717.78;5064075;28;20648;-47
2022/10/15 13:01:28;;;;;;;3.78;0.45;;;;;;;17.13;52.49;98706.28;5110090;27;20126;-47
2022/10/15 13:03:57;;;;;;;3.67;0.68;;;;;;;17.20;52.90;98707.63;5037872;27;20054;-42
2022/10/15 13:09:24;;;;;;;2.83;0.93;;;;;;;17.71;53.43;98691.03;5103920;27;20118;-45
2022/10/15 13:11:52;;;;;;;2.47;0.90;;;;;;;17.96;52.99;98704.53;5075722;28;20106;-42
2022/10/15 13:16:55;;;;;;;2.15;0.65;;;;;;;18.17;52.32;98692.06;5073333;27;20142;-42
2022/10/15 13:22:25;;;;;;;2.40;1.63;;;;;;;18.05;51.00;98697.94;5097713;27;20630;-42
2022/10/15 13:24:54;;;;;;;4.78;2.05;;;;;;;17.97;51.90;98690.53;5056575;28;20095;-46
2022/10/15 13:32:48;;;;;;;5.20;0.68;;;;;;;17.54;51.71;98685.84;5108097;27;20122;-44
2022/10/15 13:35:21;;;;;;;11.00;2.70;;;;;;;17.45;51.81;98685.41;5051765;28;20065;-45
2022/10/15 13:37:48;;;;;;;5.60;1.42;;;;;;;17.37;52.22;98682.38;5049087;28;20120;-43
2022/10/15 13:43:21;;;;;;;2.47;1.08;;;;;;;17.20;51.84;98676.22;5069193;27;20504;-45
2022/10/15 13:45:53;;;;;;;4.30;2.17;;;;;;;17.14;51.84;98680.94;5018122;28;20052;-42
2022/10/15 13:48:22;;;;;;;3.22;2.53;;;;;;;17.10;52.67;98680.28;5020520;28;20560;-43
2022/10/15 13:50:53;;;;;;;5.80;1.42;;;;;;;17.08;51.90;98671.63;5016546;28;20113;-43
2022/10/15 13:55:57;;;;;;;4.18;0.73;;;;;;;17.11;52.01;98663.63;5136329;27;20124;-44
2022/10/15 14:03:38;;;;;;;7.50;0.70;;;;;;;17.09;51.87;98657.63;5091916;27;20126;-45
2022/10/15 14:06:23;;;;;;;5.38;0.63;;;;;;;17.02;52.51;98667.53;5066665;28;20048;-46
2022/10/15 14:08:53;;;;;;;3.78;0.93;;;;;;;17.05;52.14;98661.31;5071057;28;20080;-43
2022/10/15 14:11:20;;;;;;;7.15;0.52;;;;;;;16.95;52.12;98666.16;5063527;28;20056;-43
2022/10/15 14:13:52;;;;;;;5.47;0.50;;;;;;;16.87;52.29;98660.47;5081723;28;20127;-44
2022/10/15 14:19:08;;;;;;;3.78;0.82;;;;;;;16.74;52.44;98673.34;5086939;27;20123;-43
2022/10/15 14:21:41;;;;;;;5.65;1.02;;;;;;;16.73;52.98;98688.19;5041866;28;20069;-43
2022/10/15 14:24:19;;;;;;;5.07;1.13;;;;;;;16.64;52.71;98679.03;5040653;28;20132;-48
2022/10/15 14:26:47;;;;;;;3.42;1.63;;;;;;;16.64;52.56;98678.19;5043186;28;20132;-44
2022/10/15 14:31:50;;;;;;;7.75;1.83;;;;;;;16.67;53.77;98671.03;5135620;27;20129;-43